sensor_id;sensor_type;location;lat;lon;timestamp;P1;durP1;ratioP1;P2;durP2;ratioP2
11008;SDS011;5557;51.670;7.788;2023-02-17T00:01:20;36.37;;;25.00;;
11008;SDS011;5557;51.670;7.788;2023-02-17T00:03:49;31.10;;;23.20;;
11008;SDS011;5557;51.670;7.788;2023-02-17T00:06:18;36.57;;;23.20;;
11008;SDS011;5557;51.670;7.788;2023-02-17T00:08:49;34.50;;;25.00;;
11008;SDS011;5557;51.670;7.788;2023-02-17T00:11:17;37.23;;;23.90;;
11008;SDS011;5557;51.670;7.788;2023-02-17T00:13:45;34.13;;;24.63;;
11008;SDS011;5557;51.670;7.788;2023-02-17T00:16:15;32.07;;;23.73;;
11008;SDS011;5557;51.670;7.788;2023-02-17T00:18:44;36.10;;;25.13;;
11008;SDS011;5557;51.670;7.788;2023-02-17T00:21:12;35.97;;;25.20;;
11008;SDS011;5557;51.670;7.788;2023-02-17T00:23:41;38.57;;;26.07;;
11008;SDS011;5557;51.670;7.788;2023-02-17T00:26:08;32.70;;;23.43;;
11008;SDS011;5557;51.670;7.788;2023-02-17T00:28:36;37.13;;;25.67;;
11008;SDS011;5557;51.670;7.788;2023-02-17T00:31:06;31.63;;;23.50;;
11008;SDS011;5557;51.670;7.788;2023-02-17T00:33:35;36.47;;;25.03;;
11008;SDS011;5557;51.670;7.788;2023-02-17T00:36:06;37.30;;;26.13;;
11008;SDS011;5557;51.670;7.788;2023-02-17T00:38:36;34.53;;;24.67;;
11008;SDS011;5557;51.670;7.788;2023-02-17T00:41:03;32.00;;;24.33;;
11008;SDS011;5557;51.670;7.788;2023-02-17T00:43:31;32.20;;;25.00;;
11008;SDS011;5557;51.670;7.788;2023-02-17T00:45:58;32.07;;;23.60;;
11008;SDS011;5557;51.670;7.788;2023-02-17T00:48:25;31.10;;;24.00;;
11008;SDS011;5557;51.670;7.788;2023-02-17T00:50:52;36.93;;;24.67;;
11008;SDS011;5557;51.670;7.788;2023-02-17T00:53:19;39.10;;;24.30;;
11008;SDS011;5557;51.670;7.788;2023-02-17T00:55:46;34.77;;;23.93;;
11008;SDS011;5557;51.670;7.788;2023-02-17T00:58:15;32.70;;;23.73;;
11008;SDS011;5557;51.670;7.788;2023-02-17T01:00:42;31.90;;;22.60;;
11008;SDS011;5557;51.670;7.788;2023-02-17T01:03:09;33.47;;;22.50;;
11008;SDS011;5557;51.670;7.788;2023-02-17T01:05:40;33.53;;;23.60;;
11008;SDS011;5557;51.670;7.788;2023-02-17T01:08:08;34.57;;;23.17;;
11008;SDS011;5557;51.670;7.788;2023-02-17T01:10:39;29.17;;;20.40;;
11008;SDS011;5557;51.670;7.788;2023-02-17T01:13:08;26.10;;;20.03;;
11008;SDS011;5557;51.670;7.788;2023-02-17T01:15:39;29.00;;;20.60;;
11008;SDS011;5557;51.670;7.788;2023-02-17T01:18:07;32.63;;;20.33;;
11008;SDS011;5557;51.670;7.788;2023-02-17T01:20:37;27.13;;;18.80;;
11008;SDS011;5557;51.670;7.788;2023-02-17T01:23:06;28.57;;;18.77;;
11008;SDS011;5557;51.670;7.788;2023-02-17T01:25:37;26.20;;;18.63;;
11008;SDS011;5557;51.670;7.788;2023-02-17T01:28:06;25.53;;;17.60;;
11008;SDS011;5557;51.670;7.788;2023-02-17T01:30:34;22.63;;;17.10;;
11008;SDS011;5557;51.670;7.788;2023-02-17T01:33:01;24.47;;;16.93;;
11008;SDS011;5557;51.670;7.788;2023-02-17T01:35:28;22.87;;;17.83;;
11008;SDS011;5557;51.670;7.788;2023-02-17T01:37:55;22.07;;;17.17;;
11008;SDS011;5557;51.670;7.788;2023-02-17T01:40:23;22.07;;;17.20;;
11008;SDS011;5557;51.670;7.788;2023-02-17T01:42:50;21.67;;;16.37;;
11008;SDS011;5557;51.670;7.788;2023-02-17T01:48:11;24.47;;;17.47;;
11008;SDS011;5557;51.670;7.788;2023-02-17T01:50:48;31.60;;;18.07;;
11008;SDS011;5557;51.670;7.788;2023-02-17T01:53:27;22.77;;;16.00;;
11008;SDS011;5557;51.670;7.788;2023-02-17T01:56:15;22.10;;;16.63;;
11008;SDS011;5557;51.670;7.788;2023-02-17T01:58:44;19.07;;;15.47;;
11008;SDS011;5557;51.670;7.788;2023-02-17T02:01:14;26.30;;;16.40;;
11008;SDS011;5557;51.670;7.788;2023-02-17T02:03:42;24.80;;;16.10;;
11008;SDS011;5557;51.670;7.788;2023-02-17T02:06:10;22.10;;;15.73;;
11008;SDS011;5557;51.670;7.788;2023-02-17T02:08:49;20.77;;;14.90;;
11008;SDS011;5557;51.670;7.788;2023-02-17T02:11:19;23.73;;;15.53;;
11008;SDS011;5557;51.670;7.788;2023-02-17T02:13:46;20.33;;;15.27;;
11008;SDS011;5557;51.670;7.788;2023-02-17T02:22:18;24.97;;;17.90;;
11008;SDS011;5557;51.670;7.788;2023-02-17T02:31:26;20.70;;;15.90;;
11008;SDS011;5557;51.670;7.788;2023-02-17T02:34:07;26.90;;;17.83;;
11008;SDS011;5557;51.670;7.788;2023-02-17T02:39:39;19.80;;;16.93;;
11008;SDS011;5557;51.670;7.788;2023-02-17T02:42:10;39.53;;;20.03;;
11008;SDS011;5557;51.670;7.788;2023-02-17T02:44:43;23.60;;;17.23;;
11008;SDS011;5557;51.670;7.788;2023-02-17T02:50:16;20.93;;;16.30;;
11008;SDS011;5557;51.670;7.788;2023-02-17T02:53:07;24.17;;;17.80;;
11008;SDS011;5557;51.670;7.788;2023-02-17T02:59:05;22.80;;;17.63;;
11008;SDS011;5557;51.670;7.788;2023-02-17T03:02:21;24.40;;;18.13;;
11008;SDS011;5557;51.670;7.788;2023-02-17T03:05:12;24.30;;;17.00;;
11008;SDS011;5557;51.670;7.788;2023-02-17T03:07:53;22.03;;;17.33;;
11008;SDS011;5557;51.670;7.788;2023-02-17T03:10:27;21.73;;;17.70;;
11008;SDS011;5557;51.670;7.788;2023-02-17T03:12:54;25.97;;;17.77;;
11008;SDS011;5557;51.670;7.788;2023-02-17T03:15:27;19.87;;;17.73;;
11008;SDS011;5557;51.670;7.788;2023-02-17T03:17:57;21.10;;;17.30;;
11008;SDS011;5557;51.670;7.788;2023-02-17T03:20:26;22.33;;;18.00;;
11008;SDS011;5557;51.670;7.788;2023-02-17T03:22:55;25.07;;;16.97;;
11008;SDS011;5557;51.670;7.788;2023-02-17T03:25:23;23.63;;;17.70;;
11008;SDS011;5557;51.670;7.788;2023-02-17T03:27:50;20.60;;;17.93;;
11008;SDS011;5557;51.670;7.788;2023-02-17T03:30:17;21.37;;;16.67;;
11008;SDS011;5557;51.670;7.788;2023-02-17T03:32:44;30.50;;;18.60;;
11008;SDS011;5557;51.670;7.788;2023-02-17T03:35:58;22.57;;;18.30;;
11008;SDS011;5557;51.670;7.788;2023-02-17T03:38:25;24.40;;;16.70;;
11008;SDS011;5557;51.670;7.788;2023-02-17T03:40:52;23.13;;;17.90;;
11008;SDS011;5557;51.670;7.788;2023-02-17T03:43:19;21.97;;;17.30;;
11008;SDS011;5557;51.670;7.788;2023-02-17T03:45:46;22.87;;;16.90;;
11008;SDS011;5557;51.670;7.788;2023-02-17T03:48:13;21.83;;;17.47;;
11008;SDS011;5557;51.670;7.788;2023-02-17T03:50:40;18.90;;;16.60;;
11008;SDS011;5557;51.670;7.788;2023-02-17T03:53:07;19.43;;;16.03;;
11008;SDS011;5557;51.670;7.788;2023-02-17T03:55:33;21.13;;;16.60;;
11008;SDS011;5557;51.670;7.788;2023-02-17T03:58:00;21.33;;;16.27;;
11008;SDS011;5557;51.670;7.788;2023-02-17T04:00:28;23.00;;;16.83;;
11008;SDS011;5557;51.670;7.788;2023-02-17T04:02:54;18.93;;;16.30;;
11008;SDS011;5557;51.670;7.788;2023-02-17T04:05:22;31.20;;;16.47;;
11008;SDS011;5557;51.670;7.788;2023-02-17T04:07:50;18.40;;;16.37;;
11008;SDS011;5557;51.670;7.788;2023-02-17T04:10:17;18.27;;;14.80;;
11008;SDS011;5557;51.670;7.788;2023-02-17T04:12:58;24.90;;;15.83;;
11008;SDS011;5557;51.670;7.788;2023-02-17T04:15:25;15.93;;;14.23;;
11008;SDS011;5557;51.670;7.788;2023-02-17T04:17:52;19.03;;;15.03;;
11008;SDS011;5557;51.670;7.788;2023-02-17T04:20:19;17.00;;;14.53;;
11008;SDS011;5557;51.670;7.788;2023-02-17T04:22:46;17.90;;;15.40;;
11008;SDS011;5557;51.670;7.788;2023-02-17T04:25:13;16.90;;;13.80;;
11008;SDS011;5557;51.670;7.788;2023-02-17T04:27:40;21.33;;;14.10;;
11008;SDS011;5557;51.670;7.788;2023-02-17T04:30:07;18.57;;;14.23;;
11008;SDS011;5557;51.670;7.788;2023-02-17T04:32:37;15.53;;;13.07;;
11008;SDS011;5557;51.670;7.788;2023-02-17T04:35:04;15.97;;;14.00;;
11008;SDS011;5557;51.670;7.788;2023-02-17T04:37:32;14.33;;;12.87;;
11008;SDS011;5557;51.670;7.788;2023-02-17T04:39:58;13.40;;;12.00;;
11008;SDS011;5557;51.670;7.788;2023-02-17T04:42:25;13.63;;;12.23;;
11008;SDS011;5557;51.670;7.788;2023-02-17T04:44:52;13.03;;;11.73;;
11008;SDS011;5557;51.670;7.788;2023-02-17T04:47:19;17.57;;;13.20;;
11008;SDS011;5557;51.670;7.788;2023-02-17T04:49:46;15.40;;;12.63;;
11008;SDS011;5557;51.670;7.788;2023-02-17T04:52:13;13.00;;;11.63;;
11008;SDS011;5557;51.670;7.788;2023-02-17T04:54:40;12.90;;;11.70;;
11008;SDS011;5557;51.670;7.788;2023-02-17T04:57:07;14.57;;;12.23;;
11008;SDS011;5557;51.670;7.788;2023-02-17T04:59:34;12.60;;;11.33;;
11008;SDS011;5557;51.670;7.788;2023-02-17T05:02:00;12.43;;;11.30;;
11008;SDS011;5557;51.670;7.788;2023-02-17T05:04:27;22.57;;;12.70;;
11008;SDS011;5557;51.670;7.788;2023-02-17T05:06:54;13.13;;;11.87;;
11008;SDS011;5557;51.670;7.788;2023-02-17T05:09:21;14.53;;;11.80;;
11008;SDS011;5557;51.670;7.788;2023-02-17T05:11:49;11.93;;;10.70;;
11008;SDS011;5557;51.670;7.788;2023-02-17T05:14:16;12.23;;;11.13;;
11008;SDS011;5557;51.670;7.788;2023-02-17T05:16:43;11.77;;;10.57;;
11008;SDS011;5557;51.670;7.788;2023-02-17T05:19:10;11.70;;;10.60;;
11008;SDS011;5557;51.670;7.788;2023-02-17T05:21:37;12.03;;;10.80;;
11008;SDS011;5557;51.670;7.788;2023-02-17T05:24:04;12.60;;;9.40;;
11008;SDS011;5557;51.670;7.788;2023-02-17T05:26:31;12.40;;;11.20;;
11008;SDS011;5557;51.670;7.788;2023-02-17T05:28:58;11.03;;;10.10;;
11008;SDS011;5557;51.670;7.788;2023-02-17T05:31:25;11.87;;;10.77;;
11008;SDS011;5557;51.670;7.788;2023-02-17T05:33:53;11.40;;;10.30;;
11008;SDS011;5557;51.670;7.788;2023-02-17T05:36:20;10.07;;;9.27;;
11008;SDS011;5557;51.670;7.788;2023-02-17T05:38:47;10.20;;;9.30;;
11008;SDS011;5557;51.670;7.788;2023-02-17T05:41:15;12.03;;;10.93;;
11008;SDS011;5557;51.670;7.788;2023-02-17T05:43:42;11.80;;;10.13;;
11008;SDS011;5557;51.670;7.788;2023-02-17T05:46:10;11.47;;;10.43;;
11008;SDS011;5557;51.670;7.788;2023-02-17T05:48:37;11.23;;;10.10;;
11008;SDS011;5557;51.670;7.788;2023-02-17T05:51:04;10.67;;;9.60;;
11008;SDS011;5557;51.670;7.788;2023-02-17T05:53:31;10.33;;;9.43;;
11008;SDS011;5557;51.670;7.788;2023-02-17T05:55:57;10.90;;;9.67;;
11008;SDS011;5557;51.670;7.788;2023-02-17T05:58:24;13.73;;;10.77;;
11008;SDS011;5557;51.670;7.788;2023-02-17T06:00:52;12.40;;;10.37;;
11008;SDS011;5557;51.670;7.788;2023-02-17T06:03:19;12.33;;;11.20;;
11008;SDS011;5557;51.670;7.788;2023-02-17T06:05:46;11.23;;;9.50;;
11008;SDS011;5557;51.670;7.788;2023-02-17T06:08:13;10.70;;;9.70;;
11008;SDS011;5557;51.670;7.788;2023-02-17T06:10:40;9.60;;;8.80;;
11008;SDS011;5557;51.670;7.788;2023-02-17T06:13:07;11.20;;;10.10;;
11008;SDS011;5557;51.670;7.788;2023-02-17T06:15:34;11.43;;;10.23;;
11008;SDS011;5557;51.670;7.788;2023-02-17T06:18:01;11.00;;;9.87;;
11008;SDS011;5557;51.670;7.788;2023-02-17T06:20:28;11.53;;;10.33;;
11008;SDS011;5557;51.670;7.788;2023-02-17T06:22:55;9.67;;;8.77;;
11008;SDS011;5557;51.670;7.788;2023-02-17T06:25:22;11.17;;;9.63;;
11008;SDS011;5557;51.670;7.788;2023-02-17T06:27:49;10.70;;;9.83;;
11008;SDS011;5557;51.670;7.788;2023-02-17T06:30:16;10.87;;;9.77;;
11008;SDS011;5557;51.670;7.788;2023-02-17T06:32:43;10.60;;;9.63;;
11008;SDS011;5557;51.670;7.788;2023-02-17T06:35:10;11.17;;;10.00;;
11008;SDS011;5557;51.670;7.788;2023-02-17T06:37:37;11.67;;;9.60;;
11008;SDS011;5557;51.670;7.788;2023-02-17T06:40:04;11.97;;;10.77;;
11008;SDS011;5557;51.670;7.788;2023-02-17T06:42:31;10.90;;;9.90;;
11008;SDS011;5557;51.670;7.788;2023-02-17T06:44:58;12.67;;;10.93;;
11008;SDS011;5557;51.670;7.788;2023-02-17T06:47:28;11.83;;;10.63;;
11008;SDS011;5557;51.670;7.788;2023-02-17T06:49:55;12.53;;;11.37;;
11008;SDS011;5557;51.670;7.788;2023-02-17T06:52:22;13.00;;;11.77;;
11008;SDS011;5557;51.670;7.788;2023-02-17T06:54:49;11.57;;;10.37;;
11008;SDS011;5557;51.670;7.788;2023-02-17T06:57:16;11.50;;;10.37;;
11008;SDS011;5557;51.670;7.788;2023-02-17T06:59:43;12.13;;;10.97;;
11008;SDS011;5557;51.670;7.788;2023-02-17T07:02:11;12.97;;;10.87;;
11008;SDS011;5557;51.670;7.788;2023-02-17T07:04:39;12.13;;;10.43;;
11008;SDS011;5557;51.670;7.788;2023-02-17T07:07:07;11.43;;;10.40;;
11008;SDS011;5557;51.670;7.788;2023-02-17T07:09:36;12.83;;;11.07;;
11008;SDS011;5557;51.670;7.788;2023-02-17T07:12:04;12.50;;;11.23;;
11008;SDS011;5557;51.670;7.788;2023-02-17T07:14:31;11.37;;;10.17;;
11008;SDS011;5557;51.670;7.788;2023-02-17T07:16:59;11.23;;;10.10;;
11008;SDS011;5557;51.670;7.788;2023-02-17T07:19:27;11.13;;;10.13;;
11008;SDS011;5557;51.670;7.788;2023-02-17T07:21:54;13.47;;;11.63;;
11008;SDS011;5557;51.670;7.788;2023-02-17T07:24:21;11.50;;;10.40;;
11008;SDS011;5557;51.670;7.788;2023-02-17T07:26:48;12.70;;;11.10;;
11008;SDS011;5557;51.670;7.788;2023-02-17T07:29:15;12.27;;;11.00;;
11008;SDS011;5557;51.670;7.788;2023-02-17T07:31:42;11.43;;;10.23;;
11008;SDS011;5557;51.670;7.788;2023-02-17T07:34:09;16.10;;;10.80;;
11008;SDS011;5557;51.670;7.788;2023-02-17T07:36:36;12.57;;;11.07;;
11008;SDS011;5557;51.670;7.788;2023-02-17T07:39:02;12.03;;;10.90;;
11008;SDS011;5557;51.670;7.788;2023-02-17T07:41:30;14.10;;;11.10;;
11008;SDS011;5557;51.670;7.788;2023-02-17T07:43:58;12.70;;;10.50;;
11008;SDS011;5557;51.670;7.788;2023-02-17T07:46:25;11.77;;;10.10;;
11008;SDS011;5557;51.670;7.788;2023-02-17T07:48:53;11.90;;;10.23;;
11008;SDS011;5557;51.670;7.788;2023-02-17T07:51:22;9.73;;;8.83;;
11008;SDS011;5557;51.670;7.788;2023-02-17T07:53:50;11.47;;;10.47;;
11008;SDS011;5557;51.670;7.788;2023-02-17T07:56:18;11.20;;;10.20;;
11008;SDS011;5557;51.670;7.788;2023-02-17T07:58:47;12.00;;;11.00;;
11008;SDS011;5557;51.670;7.788;2023-02-17T08:01:17;11.33;;;10.27;;
11008;SDS011;5557;51.670;7.788;2023-02-17T08:03:46;11.33;;;10.33;;
11008;SDS011;5557;51.670;7.788;2023-02-17T08:06:23;11.10;;;10.10;;
11008;SDS011;5557;51.670;7.788;2023-02-17T08:08:51;10.70;;;9.80;;
11008;SDS011;5557;51.670;7.788;2023-02-17T08:11:38;10.77;;;9.70;;
11008;SDS011;5557;51.670;7.788;2023-02-17T08:14:25;10.80;;;9.80;;
11008;SDS011;5557;51.670;7.788;2023-02-17T08:16:53;12.57;;;10.30;;
11008;SDS011;5557;51.670;7.788;2023-02-17T08:19:21;11.97;;;10.87;;
11008;SDS011;5557;51.670;7.788;2023-02-17T08:21:48;12.40;;;10.73;;
11008;SDS011;5557;51.670;7.788;2023-02-17T08:24:16;14.70;;;12.70;;
11008;SDS011;5557;51.670;7.788;2023-02-17T08:26:44;14.03;;;10.87;;
11008;SDS011;5557;51.670;7.788;2023-02-17T08:29:12;13.50;;;10.80;;
11008;SDS011;5557;51.670;7.788;2023-02-17T08:31:40;12.60;;;11.07;;
11008;SDS011;5557;51.670;7.788;2023-02-17T08:34:08;12.97;;;11.77;;
11008;SDS011;5557;51.670;7.788;2023-02-17T08:36:36;12.20;;;11.00;;
11008;SDS011;5557;51.670;7.788;2023-02-17T08:39:05;11.73;;;10.57;;
11008;SDS011;5557;51.670;7.788;2023-02-17T08:41:36;11.47;;;10.00;;
11008;SDS011;5557;51.670;7.788;2023-02-17T08:44:08;10.80;;;9.90;;
11008;SDS011;5557;51.670;7.788;2023-02-17T08:46:37;11.60;;;10.30;;
11008;SDS011;5557;51.670;7.788;2023-02-17T08:49:05;16.10;;;11.97;;
11008;SDS011;5557;51.670;7.788;2023-02-17T08:51:32;10.83;;;9.73;;
11008;SDS011;5557;51.670;7.788;2023-02-17T08:54:00;11.53;;;10.33;;
11008;SDS011;5557;51.670;7.788;2023-02-17T08:56:29;11.03;;;10.03;;
11008;SDS011;5557;51.670;7.788;2023-02-17T08:58:56;12.13;;;11.00;;
11008;SDS011;5557;51.670;7.788;2023-02-17T09:01:24;10.90;;;9.90;;
11008;SDS011;5557;51.670;7.788;2023-02-17T09:03:51;10.07;;;9.23;;
11008;SDS011;5557;51.670;7.788;2023-02-17T09:06:19;10.00;;;9.10;;
11008;SDS011;5557;51.670;7.788;2023-02-17T09:08:47;10.70;;;9.73;;
11008;SDS011;5557;51.670;7.788;2023-02-17T09:11:14;11.03;;;9.83;;
11008;SDS011;5557;51.670;7.788;2023-02-17T09:13:43;10.33;;;9.50;;
11008;SDS011;5557;51.670;7.788;2023-02-17T09:16:10;10.87;;;9.87;;
11008;SDS011;5557;51.670;7.788;2023-02-17T09:18:37;10.47;;;9.23;;
11008;SDS011;5557;51.670;7.788;2023-02-17T09:21:08;10.03;;;8.87;;
11008;SDS011;5557;51.670;7.788;2023-02-17T09:23:37;13.07;;;9.10;;
11008;SDS011;5557;51.670;7.788;2023-02-17T09:26:06;12.47;;;9.80;;
11008;SDS011;5557;51.670;7.788;2023-02-17T09:28:35;8.83;;;8.13;;
11008;SDS011;5557;51.670;7.788;2023-02-17T09:31:24;9.90;;;9.00;;
11008;SDS011;5557;51.670;7.788;2023-02-17T09:33:51;8.63;;;7.97;;
11008;SDS011;5557;51.670;7.788;2023-02-17T09:36:19;10.17;;;9.20;;
11008;SDS011;5557;51.670;7.788;2023-02-17T09:38:51;9.50;;;8.70;;
11008;SDS011;5557;51.670;7.788;2023-02-17T09:44:18;9.23;;;8.43;;
11008;SDS011;5557;51.670;7.788;2023-02-17T09:47:02;8.80;;;8.10;;
11008;SDS011;5557;51.670;7.788;2023-02-17T09:49:37;8.03;;;7.43;;
11008;SDS011;5557;51.670;7.788;2023-02-17T09:58:18;11.90;;;8.17;;
11008;SDS011;5557;51.670;7.788;2023-02-17T10:00:50;14.37;;;7.90;;
11008;SDS011;5557;51.670;7.788;2023-02-17T10:04:04;6.80;;;6.30;;
11008;SDS011;5557;51.670;7.788;2023-02-17T10:09:13;8.27;;;7.57;;
11008;SDS011;5557;51.670;7.788;2023-02-17T10:12:15;8.63;;;7.90;;
11008;SDS011;5557;51.670;7.788;2023-02-17T10:14:56;8.30;;;7.70;;
11008;SDS011;5557;51.670;7.788;2023-02-17T10:17:39;9.60;;;8.70;;
11008;SDS011;5557;51.670;7.788;2023-02-17T10:20:30;10.47;;;9.37;;
11008;SDS011;5557;51.670;7.788;2023-02-17T10:23:03;10.60;;;9.50;;
11008;SDS011;5557;51.670;7.788;2023-02-17T10:29:02;9.13;;;8.43;;
11008;SDS011;5557;51.670;7.788;2023-02-17T10:37:55;11.27;;;9.50;;
11008;SDS011;5557;51.670;7.788;2023-02-17T10:41:02;11.53;;;10.37;;
11008;SDS011;5557;51.670;7.788;2023-02-17T10:43:34;10.40;;;9.50;;
11008;SDS011;5557;51.670;7.788;2023-02-17T10:46:02;12.40;;;10.23;;
11008;SDS011;5557;51.670;7.788;2023-02-17T10:48:36;13.40;;;11.63;;
11008;SDS011;5557;51.670;7.788;2023-02-17T10:51:16;10.83;;;9.83;;
11008;SDS011;5557;51.670;7.788;2023-02-17T10:53:47;12.10;;;11.00;;
11008;SDS011;5557;51.670;7.788;2023-02-17T10:56:20;11.20;;;10.13;;
11008;SDS011;5557;51.670;7.788;2023-02-17T10:58:52;11.30;;;10.10;;
11008;SDS011;5557;51.670;7.788;2023-02-17T11:01:28;10.83;;;9.83;;
11008;SDS011;5557;51.670;7.788;2023-02-17T11:04:02;10.57;;;9.53;;
11008;SDS011;5557;51.670;7.788;2023-02-17T11:06:31;10.17;;;9.00;;
11008;SDS011;5557;51.670;7.788;2023-02-17T11:09:04;12.63;;;10.53;;
11008;SDS011;5557;51.670;7.788;2023-02-17T11:11:34;11.10;;;10.20;;
11008;SDS011;5557;51.670;7.788;2023-02-17T11:14:22;10.07;;;9.20;;
11008;SDS011;5557;51.670;7.788;2023-02-17T11:16:58;11.20;;;10.27;;
11008;SDS011;5557;51.670;7.788;2023-02-17T11:19:28;9.67;;;8.90;;
11008;SDS011;5557;51.670;7.788;2023-02-17T11:22:02;10.07;;;9.20;;
11008;SDS011;5557;51.670;7.788;2023-02-17T11:24:31;13.83;;;9.83;;
11008;SDS011;5557;51.670;7.788;2023-02-17T11:27:01;10.40;;;9.60;;
11008;SDS011;5557;51.670;7.788;2023-02-17T11:29:34;11.80;;;10.70;;
11008;SDS011;5557;51.670;7.788;2023-02-17T11:32:02;13.80;;;10.17;;
11008;SDS011;5557;51.670;7.788;2023-02-17T11:34:35;13.30;;;11.87;;
11008;SDS011;5557;51.670;7.788;2023-02-17T11:39:50;11.50;;;10.30;;
11008;SDS011;5557;51.670;7.788;2023-02-17T11:42:20;10.97;;;9.87;;
11008;SDS011;5557;51.670;7.788;2023-02-17T11:44:58;10.20;;;9.30;;
11008;SDS011;5557;51.670;7.788;2023-02-17T11:52:01;9.47;;;8.77;;
11008;SDS011;5557;51.670;7.788;2023-02-17T11:55:14;10.17;;;9.17;;
11008;SDS011;5557;51.670;7.788;2023-02-17T12:00:13;11.17;;;10.27;;
11008;SDS011;5557;51.670;7.788;2023-02-17T12:02:58;15.27;;;10.37;;
11008;SDS011;5557;51.670;7.788;2023-02-17T12:15:23;7.00;;;6.50;;
11008;SDS011;5557;51.670;7.788;2023-02-17T12:26:44;6.73;;;5.77;;
11008;SDS011;5557;51.670;7.788;2023-02-17T12:38:47;7.43;;;6.80;;
11008;SDS011;5557;51.670;7.788;2023-02-17T12:41:23;8.70;;;7.90;;
11008;SDS011;5557;51.670;7.788;2023-02-17T12:43:58;8.90;;;8.07;;
11008;SDS011;5557;51.670;7.788;2023-02-17T12:46:38;8.40;;;7.60;;
11008;SDS011;5557;51.670;7.788;2023-02-17T12:49:52;6.87;;;6.47;;
11008;SDS011;5557;51.670;7.788;2023-02-17T12:52:19;6.33;;;5.87;;
11008;SDS011;5557;51.670;7.788;2023-02-17T12:54:54;5.60;;;5.20;;
11008;SDS011;5557;51.670;7.788;2023-02-17T13:00:39;5.80;;;5.50;;
11008;SDS011;5557;51.670;7.788;2023-02-17T13:03:10;7.13;;;4.30;;
11008;SDS011;5557;51.670;7.788;2023-02-17T13:05:45;4.90;;;4.60;;
11008;SDS011;5557;51.670;7.788;2023-02-17T13:08:22;6.20;;;5.80;;
11008;SDS011;5557;51.670;7.788;2023-02-17T13:11:10;6.50;;;5.97;;
11008;SDS011;5557;51.670;7.788;2023-02-17T13:13:39;6.20;;;5.63;;
11008;SDS011;5557;51.670;7.788;2023-02-17T13:16:07;6.00;;;5.50;;
11008;SDS011;5557;51.670;7.788;2023-02-17T13:18:44;6.80;;;6.23;;
11008;SDS011;5557;51.670;7.788;2023-02-17T13:23:59;9.70;;;6.67;;
11008;SDS011;5557;51.670;7.788;2023-02-17T13:26:28;7.83;;;7.13;;
11008;SDS011;5557;51.670;7.788;2023-02-17T13:29:15;7.60;;;7.07;;
11008;SDS011;5557;51.670;7.788;2023-02-17T13:32:10;7.60;;;7.00;;
11008;SDS011;5557;51.670;7.788;2023-02-17T13:34:42;18.67;;;9.90;;
11008;SDS011;5557;51.670;7.788;2023-02-17T13:37:53;10.20;;;9.20;;
11008;SDS011;5557;51.670;7.788;2023-02-17T13:43:17;11.07;;;9.20;;
11008;SDS011;5557;51.670;7.788;2023-02-17T13:46:06;9.07;;;8.27;;
11008;SDS011;5557;51.670;7.788;2023-02-17T13:48:34;13.10;;;8.10;;
11008;SDS011;5557;51.670;7.788;2023-02-17T13:51:02;8.50;;;7.80;;
11008;SDS011;5557;51.670;7.788;2023-02-17T13:53:34;8.80;;;8.13;;
11008;SDS011;5557;51.670;7.788;2023-02-17T13:56:07;7.60;;;7.00;;
11008;SDS011;5557;51.670;7.788;2023-02-17T13:58:39;10.67;;;9.67;;
11008;SDS011;5557;51.670;7.788;2023-02-17T14:01:11;7.20;;;6.60;;
11008;SDS011;5557;51.670;7.788;2023-02-17T14:03:42;7.10;;;6.57;;
11008;SDS011;5557;51.670;7.788;2023-02-17T14:09:25;7.60;;;6.87;;
11008;SDS011;5557;51.670;7.788;2023-02-17T14:11:57;6.40;;;6.00;;
11008;SDS011;5557;51.670;7.788;2023-02-17T14:14:28;6.53;;;5.93;;
11008;SDS011;5557;51.670;7.788;2023-02-17T14:17:04;6.53;;;6.00;;
11008;SDS011;5557;51.670;7.788;2023-02-17T14:19:40;6.47;;;6.17;;
11008;SDS011;5557;51.670;7.788;2023-02-17T14:25:14;5.97;;;5.57;;
11008;SDS011;5557;51.670;7.788;2023-02-17T14:27:52;6.00;;;5.60;;
11008;SDS011;5557;51.670;7.788;2023-02-17T14:30:34;5.83;;;5.53;;
11008;SDS011;5557;51.670;7.788;2023-02-17T14:35:51;5.80;;;5.60;;
11008;SDS011;5557;51.670;7.788;2023-02-17T14:38:27;9.67;;;8.70;;
11008;SDS011;5557;51.670;7.788;2023-02-17T14:41:03;7.00;;;6.20;;
11008;SDS011;5557;51.670;7.788;2023-02-17T14:43:31;6.27;;;5.90;;
11008;SDS011;5557;51.670;7.788;2023-02-17T14:45:58;6.27;;;5.87;;
11008;SDS011;5557;51.670;7.788;2023-02-17T14:48:25;7.17;;;6.60;;
11008;SDS011;5557;51.670;7.788;2023-02-17T14:50:54;6.60;;;6.20;;
11008;SDS011;5557;51.670;7.788;2023-02-17T14:53:26;6.77;;;6.17;;
11008;SDS011;5557;51.670;7.788;2023-02-17T14:55:59;7.60;;;7.00;;
11008;SDS011;5557;51.670;7.788;2023-02-17T14:58:40;7.33;;;6.13;;
11008;SDS011;5557;51.670;7.788;2023-02-17T15:01:08;7.13;;;6.60;;
11008;SDS011;5557;51.670;7.788;2023-02-17T15:03:37;8.67;;;7.97;;
11008;SDS011;5557;51.670;7.788;2023-02-17T15:06:14;8.63;;;7.73;;
11008;SDS011;5557;51.670;7.788;2023-02-17T15:08:44;9.03;;;8.13;;
11008;SDS011;5557;51.670;7.788;2023-02-17T15:11:15;11.33;;;8.97;;
11008;SDS011;5557;51.670;7.788;2023-02-17T15:13:51;9.57;;;8.77;;
11008;SDS011;5557;51.670;7.788;2023-02-17T15:16:18;12.03;;;9.80;;
11008;SDS011;5557;51.670;7.788;2023-02-17T15:18:45;12.90;;;9.50;;
11008;SDS011;5557;51.670;7.788;2023-02-17T15:21:31;11.13;;;10.00;;
11008;SDS011;5557;51.670;7.788;2023-02-17T15:24:00;15.20;;;12.60;;
11008;SDS011;5557;51.670;7.788;2023-02-17T15:26:29;12.83;;;11.53;;
11008;SDS011;5557;51.670;7.788;2023-02-17T15:28:56;17.23;;;13.43;;
11008;SDS011;5557;51.670;7.788;2023-02-17T15:31:23;10.83;;;9.83;;
11008;SDS011;5557;51.670;7.788;2023-02-17T15:33:55;11.27;;;10.17;;
11008;SDS011;5557;51.670;7.788;2023-02-17T15:36:23;11.00;;;10.00;;
11008;SDS011;5557;51.670;7.788;2023-02-17T15:38:52;10.87;;;9.97;;
11008;SDS011;5557;51.670;7.788;2023-02-17T15:41:21;16.10;;;10.27;;
11008;SDS011;5557;51.670;7.788;2023-02-17T15:43:50;10.23;;;9.33;;
11008;SDS011;5557;51.670;7.788;2023-02-17T15:46:20;11.37;;;10.37;;
11008;SDS011;5557;51.670;7.788;2023-02-17T15:48:51;11.50;;;10.50;;
11008;SDS011;5557;51.670;7.788;2023-02-17T15:51:18;10.40;;;9.40;;
11008;SDS011;5557;51.670;7.788;2023-02-17T15:53:46;10.70;;;9.80;;
11008;SDS011;5557;51.670;7.788;2023-02-17T15:56:22;10.73;;;9.80;;
11008;SDS011;5557;51.670;7.788;2023-02-17T15:58:52;11.73;;;10.67;;
11008;SDS011;5557;51.670;7.788;2023-02-17T16:01:27;13.70;;;12.27;;
11008;SDS011;5557;51.670;7.788;2023-02-17T16:03:55;11.77;;;10.77;;
11008;SDS011;5557;51.670;7.788;2023-02-17T16:06:23;12.03;;;10.93;;
11008;SDS011;5557;51.670;7.788;2023-02-17T16:08:52;13.10;;;11.70;;
11008;SDS011;5557;51.670;7.788;2023-02-17T16:11:20;12.87;;;11.77;;
11008;SDS011;5557;51.670;7.788;2023-02-17T16:13:48;13.20;;;12.00;;
11008;SDS011;5557;51.670;7.788;2023-02-17T16:16:17;11.83;;;10.83;;
11008;SDS011;5557;51.670;7.788;2023-02-17T16:18:47;12.70;;;11.50;;
11008;SDS011;5557;51.670;7.788;2023-02-17T16:21:15;11.43;;;10.40;;
11008;SDS011;5557;51.670;7.788;2023-02-17T16:23:42;8.80;;;7.90;;
11008;SDS011;5557;51.670;7.788;2023-02-17T16:29:08;12.73;;;10.13;;
11008;SDS011;5557;51.670;7.788;2023-02-17T16:31:42;16.63;;;12.93;;
11008;SDS011;5557;51.670;7.788;2023-02-17T16:34:13;22.30;;;15.70;;
11008;SDS011;5557;51.670;7.788;2023-02-17T16:36:46;23.47;;;17.30;;
11008;SDS011;5557;51.670;7.788;2023-02-17T16:39:15;16.60;;;13.17;;
11008;SDS011;5557;51.670;7.788;2023-02-17T16:41:45;11.20;;;10.10;;
11008;SDS011;5557;51.670;7.788;2023-02-17T16:44:17;14.33;;;11.27;;
11008;SDS011;5557;51.670;7.788;2023-02-17T16:46:47;11.60;;;10.57;;
11008;SDS011;5557;51.670;7.788;2023-02-17T16:49:17;13.23;;;11.93;;